sensor_id;sensor_type;location;lat;lon;timestamp;P1;durP1;ratioP1;P2;durP2;ratioP2
53389;SDS011;39288;42.970;1.524;2023-04-25T00:00:05;0.30;;;0.20;;
53389;SDS011;39288;42.970;1.524;2023-04-25T00:01:07;0.10;;;0.10;;
53389;SDS011;39288;42.970;1.524;2023-04-25T00:02:09;0.28;;;0.10;;
53389;SDS011;39288;42.970;1.524;2023-04-25T00:03:09;0.90;;;0.10;;
53389;SDS011;39288;42.970;1.524;2023-04-25T00:04:10;2.23;;;0.20;;
53389;SDS011;39288;42.970;1.524;2023-04-25T00:06:12;0.90;;;0.20;;
53389;SDS011;39288;42.970;1.524;2023-04-25T00:07:13;0.10;;;0.10;;
53389;SDS011;39288;42.970;1.524;2023-04-25T00:08:13;0.03;;;0.03;;
53389;SDS011;39288;42.970;1.524;2023-04-25T00:09:13;0.10;;;0.10;;
53389;SDS011;39288;42.970;1.524;2023-04-25T00:10:15;0.68;;;0.20;;
53389;SDS011;39288;42.970;1.524;2023-04-25T00:11:15;0.00;;;0.00;;
53389;SDS011;39288;42.970;1.524;2023-04-25T00:12:16;1.10;;;0.00;;
53389;SDS011;39288;42.970;1.524;2023-04-25T00:13:16;0.20;;;0.20;;
53389;SDS011;39288;42.970;1.524;2023-04-25T00:14:17;1.63;;;0.20;;
53389;SDS011;39288;42.970;1.524;2023-04-25T00:15:17;0.93;;;0.20;;
53389;SDS011;39288;42.970;1.524;2023-04-25T00:16:18;0.10;;;0.00;;
53389;SDS011;39288;42.970;1.524;2023-04-25T00:17:19;0.30;;;0.27;;
53389;SDS011;39288;42.970;1.524;2023-04-25T00:18:19;0.10;;;0.10;;
53389;SDS011;39288;42.970;1.524;2023-04-25T00:19:20;0.00;;;0.00;;
53389;SDS011;39288;42.970;1.524;2023-04-25T00:20:20;0.50;;;0.20;;
53389;SDS011;39288;42.970;1.524;2023-04-25T00:21:22;0.13;;;0.08;;
53389;SDS011;39288;42.970;1.524;2023-04-25T00:22:24;0.10;;;0.10;;
53389;SDS011;39288;42.970;1.524;2023-04-25T00:23:24;0.10;;;0.10;;
53389;SDS011;39288;42.970;1.524;2023-04-25T00:24:25;0.20;;;0.20;;
53389;SDS011;39288;42.970;1.524;2023-04-25T00:25:25;0.53;;;0.07;;
53389;SDS011;39288;42.970;1.524;2023-04-25T00:26:26;0.30;;;0.10;;
53389;SDS011;39288;42.970;1.524;2023-04-25T00:27:27;0.82;;;0.10;;
53389;SDS011;39288;42.970;1.524;2023-04-25T00:28:27;1.27;;;0.10;;
53389;SDS011;39288;42.970;1.524;2023-04-25T00:29:28;0.30;;;0.10;;
53389;SDS011;39288;42.970;1.524;2023-04-25T00:30:28;0.27;;;0.10;;
53389;SDS011;39288;42.970;1.524;2023-04-25T00:31:29;0.20;;;0.10;;
53389;SDS011;39288;42.970;1.524;2023-04-25T00:32:30;0.40;;;0.10;;
53389;SDS011;39288;42.970;1.524;2023-04-25T00:33:30;1.10;;;0.10;;
53389;SDS011;39288;42.970;1.524;2023-04-25T00:34:31;0.67;;;0.10;;
53389;SDS011;39288;42.970;1.524;2023-04-25T00:35:31;1.40;;;0.10;;
53389;SDS011;39288;42.970;1.524;2023-04-25T00:36:32;0.57;;;0.10;;
53389;SDS011;39288;42.970;1.524;2023-04-25T00:37:32;0.67;;;0.10;;
53389;SDS011;39288;42.970;1.524;2023-04-25T00:38:33;0.00;;;0.00;;
53389;SDS011;39288;42.970;1.524;2023-04-25T00:39:33;0.00;;;0.00;;
53389;SDS011;39288;42.970;1.524;2023-04-25T00:40:34;0.10;;;0.10;;
53389;SDS011;39288;42.970;1.524;2023-04-25T00:41:35;0.00;;;0.00;;
53389;SDS011;39288;42.970;1.524;2023-04-25T00:42:36;0.10;;;0.07;;
53389;SDS011;39288;42.970;1.524;2023-04-25T00:43:37;0.00;;;0.00;;
53389;SDS011;39288;42.970;1.524;2023-04-25T00:44:37;0.10;;;0.07;;
53389;SDS011;39288;42.970;1.524;2023-04-25T00:45:38;0.00;;;0.00;;
53389;SDS011;39288;42.970;1.524;2023-04-25T00:46:39;0.08;;;0.00;;
53389;SDS011;39288;42.970;1.524;2023-04-25T00:47:40;0.00;;;0.00;;
53389;SDS011;39288;42.970;1.524;2023-04-25T00:48:41;0.00;;;0.00;;
53389;SDS011;39288;42.970;1.524;2023-04-25T00:49:41;1.07;;;0.20;;
53389;SDS011;39288;42.970;1.524;2023-04-25T00:50:51;1.10;;;0.17;;
53389;SDS011;39288;42.970;1.524;2023-04-25T00:51:53;0.00;;;0.00;;
53389;SDS011;39288;42.970;1.524;2023-04-25T00:52:53;0.00;;;0.00;;
53389;SDS011;39288;42.970;1.524;2023-04-25T00:53:54;1.00;;;0.00;;
53389;SDS011;39288;42.970;1.524;2023-04-25T00:54:54;1.33;;;0.10;;
53389;SDS011;39288;42.970;1.524;2023-04-25T00:55:55;0.00;;;0.00;;
53389;SDS011;39288;42.970;1.524;2023-04-25T00:56:56;0.00;;;0.00;;
53389;SDS011;39288;42.970;1.524;2023-04-25T00:57:57;0.20;;;0.00;;
53389;SDS011;39288;42.970;1.524;2023-04-25T00:58:57;2.00;;;0.07;;
53389;SDS011;39288;42.970;1.524;2023-04-25T00:59:58;1.70;;;0.00;;
53389;SDS011;39288;42.970;1.524;2023-04-25T01:00:59;2.33;;;0.10;;
53389;SDS011;39288;42.970;1.524;2023-04-25T01:02:00;0.43;;;0.10;;
53389;SDS011;39288;42.970;1.524;2023-04-25T01:03:00;0.00;;;0.00;;
53389;SDS011;39288;42.970;1.524;2023-04-25T01:04:02;0.00;;;0.00;;
53389;SDS011;39288;42.970;1.524;2023-04-25T01:05:03;0.00;;;0.00;;
53389;SDS011;39288;42.970;1.524;2023-04-25T01:06:04;0.10;;;0.00;;
53389;SDS011;39288;42.970;1.524;2023-04-25T01:07:04;0.00;;;0.00;;
53389;SDS011;39288;42.970;1.524;2023-04-25T01:08:05;1.73;;;0.10;;
53389;SDS011;39288;42.970;1.524;2023-04-25T01:09:05;0.73;;;0.10;;
53389;SDS011;39288;42.970;1.524;2023-04-25T01:10:06;0.03;;;0.03;;
53389;SDS011;39288;42.970;1.524;2023-04-25T01:11:07;0.10;;;0.10;;
53389;SDS011;39288;42.970;1.524;2023-04-25T01:12:07;0.47;;;0.10;;
53389;SDS011;39288;42.970;1.524;2023-04-25T01:13:08;0.97;;;0.10;;
53389;SDS011;39288;42.970;1.524;2023-04-25T01:14:08;0.00;;;0.00;;
53389;SDS011;39288;42.970;1.524;2023-04-25T01:15:09;0.10;;;0.00;;
53389;SDS011;39288;42.970;1.524;2023-04-25T01:16:10;3.33;;;0.10;;
53389;SDS011;39288;42.970;1.524;2023-04-25T01:17:10;0.70;;;0.30;;
53389;SDS011;39288;42.970;1.524;2023-04-25T01:18:11;0.00;;;0.00;;
53389;SDS011;39288;42.970;1.524;2023-04-25T01:19:12;0.00;;;0.00;;
53389;SDS011;39288;42.970;1.524;2023-04-25T01:20:16;0.00;;;0.00;;
53389;SDS011;39288;42.970;1.524;2023-04-25T01:21:17;0.20;;;0.00;;
53389;SDS011;39288;42.970;1.524;2023-04-25T01:22:17;0.00;;;0.00;;
53389;SDS011;39288;42.970;1.524;2023-04-25T01:23:19;1.43;;;0.10;;
53389;SDS011;39288;42.970;1.524;2023-04-25T01:24:20;0.10;;;0.10;;
53389;SDS011;39288;42.970;1.524;2023-04-25T01:25:21;0.00;;;0.00;;
53389;SDS011;39288;42.970;1.524;2023-04-25T01:26:22;1.88;;;0.15;;
53389;SDS011;39288;42.970;1.524;2023-04-25T01:27:23;1.23;;;0.20;;
53389;SDS011;39288;42.970;1.524;2023-04-25T01:28:24;0.40;;;0.10;;
53389;SDS011;39288;42.970;1.524;2023-04-25T01:29:24;0.10;;;0.10;;
53389;SDS011;39288;42.970;1.524;2023-04-25T01:30:28;0.57;;;0.10;;
53389;SDS011;39288;42.970;1.524;2023-04-25T01:31:29;0.20;;;0.00;;
53389;SDS011;39288;42.970;1.524;2023-04-25T01:32:30;0.75;;;0.00;;
53389;SDS011;39288;42.970;1.524;2023-04-25T01:33:38;0.63;;;0.10;;
53389;SDS011;39288;42.970;1.524;2023-04-25T01:34:38;0.03;;;0.03;;
53389;SDS011;39288;42.970;1.524;2023-04-25T01:35:39;0.77;;;0.10;;
53389;SDS011;39288;42.970;1.524;2023-04-25T01:36:40;0.00;;;0.00;;
53389;SDS011;39288;42.970;1.524;2023-04-25T01:37:41;0.10;;;0.00;;
53389;SDS011;39288;42.970;1.524;2023-04-25T01:38:42;0.00;;;0.00;;
53389;SDS011;39288;42.970;1.524;2023-04-25T01:39:44;0.00;;;0.00;;
53389;SDS011;39288;42.970;1.524;2023-04-25T01:40:44;0.00;;;0.00;;
53389;SDS011;39288;42.970;1.524;2023-04-25T01:41:46;0.00;;;0.00;;
53389;SDS011;39288;42.970;1.524;2023-04-25T01:42:47;0.88;;;0.10;;
53389;SDS011;39288;42.970;1.524;2023-04-25T01:43:48;1.23;;;0.20;;
53389;SDS011;39288;42.970;1.524;2023-04-25T01:44:48;1.60;;;0.10;;
53389;SDS011;39288;42.970;1.524;2023-04-25T01:45:49;0.20;;;0.10;;
53389;SDS011;39288;42.970;1.524;2023-04-25T01:46:50;0.17;;;0.00;;
53389;SDS011;39288;42.970;1.524;2023-04-25T01:47:50;0.00;;;0.00;;
53389;SDS011;39288;42.970;1.524;2023-04-25T01:48:51;0.10;;;0.00;;
53389;SDS011;39288;42.970;1.524;2023-04-25T01:49:51;0.23;;;0.00;;
53389;SDS011;39288;42.970;1.524;2023-04-25T01:50:52;0.30;;;0.00;;
53389;SDS011;39288;42.970;1.524;2023-04-25T01:51:52;0.10;;;0.10;;
53389;SDS011;39288;42.970;1.524;2023-04-25T01:52:53;0.00;;;0.00;;
53389;SDS011;39288;42.970;1.524;2023-04-25T01:53:54;0.00;;;0.00;;
53389;SDS011;39288;42.970;1.524;2023-04-25T01:54:55;0.43;;;0.00;;
53389;SDS011;39288;42.970;1.524;2023-04-25T01:55:57;0.20;;;0.13;;
53389;SDS011;39288;42.970;1.524;2023-04-25T01:56:57;0.07;;;0.07;;
53389;SDS011;39288;42.970;1.524;2023-04-25T01:57:58;0.20;;;0.00;;
53389;SDS011;39288;42.970;1.524;2023-04-25T02:00:01;0.00;;;0.00;;
53389;SDS011;39288;42.970;1.524;2023-04-25T02:01:03;0.00;;;0.00;;
53389;SDS011;39288;42.970;1.524;2023-04-25T02:02:03;0.00;;;0.00;;
53389;SDS011;39288;42.970;1.524;2023-04-25T02:03:04;0.00;;;0.00;;
53389;SDS011;39288;42.970;1.524;2023-04-25T02:04:05;0.00;;;0.00;;
53389;SDS011;39288;42.970;1.524;2023-04-25T02:05:05;0.00;;;0.00;;
53389;SDS011;39288;42.970;1.524;2023-04-25T02:06:06;0.00;;;0.00;;
53389;SDS011;39288;42.970;1.524;2023-04-25T02:07:07;0.00;;;0.00;;
53389;SDS011;39288;42.970;1.524;2023-04-25T02:08:08;0.27;;;0.00;;
53389;SDS011;39288;42.970;1.524;2023-04-25T02:09:09;0.47;;;0.10;;
53389;SDS011;39288;42.970;1.524;2023-04-25T02:10:10;0.33;;;0.00;;
53389;SDS011;39288;42.970;1.524;2023-04-25T02:11:10;0.00;;;0.00;;
53389;SDS011;39288;42.970;1.524;2023-04-25T02:12:11;0.00;;;0.00;;
53389;SDS011;39288;42.970;1.524;2023-04-25T02:13:11;0.00;;;0.00;;
53389;SDS011;39288;42.970;1.524;2023-04-25T02:14:11;0.00;;;0.00;;
53389;SDS011;39288;42.970;1.524;2023-04-25T02:15:12;0.00;;;0.00;;
53389;SDS011;39288;42.970;1.524;2023-04-25T02:16:12;0.03;;;0.00;;
53389;SDS011;39288;42.970;1.524;2023-04-25T02:17:13;2.03;;;0.10;;
53389;SDS011;39288;42.970;1.524;2023-04-25T02:18:14;0.47;;;0.00;;
53389;SDS011;39288;42.970;1.524;2023-04-25T02:19:16;0.17;;;0.05;;
53389;SDS011;39288;42.970;1.524;2023-04-25T02:20:16;0.00;;;0.00;;
53389;SDS011;39288;42.970;1.524;2023-04-25T02:21:17;0.00;;;0.00;;
53389;SDS011;39288;42.970;1.524;2023-04-25T02:22:17;0.00;;;0.00;;
53389;SDS011;39288;42.970;1.524;2023-04-25T02:23:18;1.30;;;0.00;;
53389;SDS011;39288;42.970;1.524;2023-04-25T02:24:21;0.00;;;0.00;;
53389;SDS011;39288;42.970;1.524;2023-04-25T02:25:22;0.00;;;0.00;;
53389;SDS011;39288;42.970;1.524;2023-04-25T02:26:22;0.87;;;0.00;;
53389;SDS011;39288;42.970;1.524;2023-04-25T02:27:23;0.20;;;0.08;;
53389;SDS011;39288;42.970;1.524;2023-04-25T02:28:24;4.90;;;0.30;;
53389;SDS011;39288;42.970;1.524;2023-04-25T02:29:25;0.00;;;0.00;;
53389;SDS011;39288;42.970;1.524;2023-04-25T02:30:26;0.10;;;0.10;;
53389;SDS011;39288;42.970;1.524;2023-04-25T02:31:27;0.00;;;0.00;;
53389;SDS011;39288;42.970;1.524;2023-04-25T02:32:27;0.00;;;0.00;;
53389;SDS011;39288;42.970;1.524;2023-04-25T02:33:27;0.47;;;0.20;;
53389;SDS011;39288;42.970;1.524;2023-04-25T02:34:28;0.47;;;0.10;;
53389;SDS011;39288;42.970;1.524;2023-04-25T02:35:28;0.00;;;0.00;;
53389;SDS011;39288;42.970;1.524;2023-04-25T02:36:29;0.00;;;0.00;;
53389;SDS011;39288;42.970;1.524;2023-04-25T02:37:32;0.52;;;0.10;;
53389;SDS011;39288;42.970;1.524;2023-04-25T02:38:33;1.00;;;0.20;;
53389;SDS011;39288;42.970;1.524;2023-04-25T02:39:34;0.00;;;0.00;;
53389;SDS011;39288;42.970;1.524;2023-04-25T02:40:34;0.53;;;0.10;;
53389;SDS011;39288;42.970;1.524;2023-04-25T02:41:35;0.10;;;0.10;;
53389;SDS011;39288;42.970;1.524;2023-04-25T02:42:35;0.47;;;0.10;;
53389;SDS011;39288;42.970;1.524;2023-04-25T02:43:36;0.33;;;0.20;;
53389;SDS011;39288;42.970;1.524;2023-04-25T02:44:36;0.33;;;0.13;;
53389;SDS011;39288;42.970;1.524;2023-04-25T02:45:37;0.43;;;0.07;;
53389;SDS011;39288;42.970;1.524;2023-04-25T02:46:37;0.43;;;0.00;;
53389;SDS011;39288;42.970;1.524;2023-04-25T02:47:38;0.67;;;0.20;;
53389;SDS011;39288;42.970;1.524;2023-04-25T02:48:38;0.10;;;0.00;;
53389;SDS011;39288;42.970;1.524;2023-04-25T02:49:39;0.27;;;0.07;;
53389;SDS011;39288;42.970;1.524;2023-04-25T02:50:39;0.10;;;0.10;;
53389;SDS011;39288;42.970;1.524;2023-04-25T02:51:40;0.73;;;0.20;;
53389;SDS011;39288;42.970;1.524;2023-04-25T02:52:40;0.00;;;0.00;;
53389;SDS011;39288;42.970;1.524;2023-04-25T02:53:40;0.10;;;0.10;;
53389;SDS011;39288;42.970;1.524;2023-04-25T02:54:41;0.57;;;0.10;;
53389;SDS011;39288;42.970;1.524;2023-04-25T02:55:41;0.20;;;0.20;;
53389;SDS011;39288;42.970;1.524;2023-04-25T02:56:42;0.10;;;0.00;;
53389;SDS011;39288;42.970;1.524;2023-04-25T02:57:42;0.00;;;0.00;;
53389;SDS011;39288;42.970;1.524;2023-04-25T02:58:43;1.47;;;0.30;;
53389;SDS011;39288;42.970;1.524;2023-04-25T02:59:44;0.13;;;0.13;;
53389;SDS011;39288;42.970;1.524;2023-04-25T03:00:44;0.47;;;0.10;;
53389;SDS011;39288;42.970;1.524;2023-04-25T03:01:45;0.00;;;0.00;;
53389;SDS011;39288;42.970;1.524;2023-04-25T03:02:45;2.63;;;0.53;;
53389;SDS011;39288;42.970;1.524;2023-04-25T03:03:46;0.10;;;0.10;;
53389;SDS011;39288;42.970;1.524;2023-04-25T03:04:46;0.10;;;0.10;;
53389;SDS011;39288;42.970;1.524;2023-04-25T03:05:51;0.15;;;0.15;;
53389;SDS011;39288;42.970;1.524;2023-04-25T03:06:51;0.28;;;0.10;;
53389;SDS011;39288;42.970;1.524;2023-04-25T03:07:53;0.55;;;0.20;;
53389;SDS011;39288;42.970;1.524;2023-04-25T03:08:53;1.03;;;0.20;;
53389;SDS011;39288;42.970;1.524;2023-04-25T03:09:53;0.10;;;0.10;;
53389;SDS011;39288;42.970;1.524;2023-04-25T03:10:55;0.20;;;0.20;;
53389;SDS011;39288;42.970;1.524;2023-04-25T03:12:57;0.43;;;0.25;;
53389;SDS011;39288;42.970;1.524;2023-04-25T03:13:58;0.60;;;0.13;;
53389;SDS011;39288;42.970;1.524;2023-04-25T03:14:58;0.20;;;0.20;;
53389;SDS011;39288;42.970;1.524;2023-04-25T03:15:59;0.40;;;0.37;;
53389;SDS011;39288;42.970;1.524;2023-04-25T03:16:59;0.20;;;0.20;;
53389;SDS011;39288;42.970;1.524;2023-04-25T03:18:00;1.30;;;0.10;;
53389;SDS011;39288;42.970;1.524;2023-04-25T03:19:00;0.13;;;0.10;;
53389;SDS011;39288;42.970;1.524;2023-04-25T03:20:01;0.20;;;0.17;;
53389;SDS011;39288;42.970;1.524;2023-04-25T03:21:01;0.57;;;0.20;;
53389;SDS011;39288;42.970;1.524;2023-04-25T03:22:02;0.10;;;0.10;;
53389;SDS011;39288;42.970;1.524;2023-04-25T03:23:02;0.47;;;0.23;;
53389;SDS011;39288;42.970;1.524;2023-04-25T03:24:03;1.47;;;0.27;;
53389;SDS011;39288;42.970;1.524;2023-04-25T03:25:05;0.25;;;0.20;;
53389;SDS011;39288;42.970;1.524;2023-04-25T03:26:05;0.47;;;0.20;;
53389;SDS011;39288;42.970;1.524;2023-04-25T03:27:06;0.20;;;0.10;;
53389;SDS011;39288;42.970;1.524;2023-04-25T03:28:06;2.97;;;0.50;;
53389;SDS011;39288;42.970;1.524;2023-04-25T03:29:07;0.20;;;0.20;;
53389;SDS011;39288;42.970;1.524;2023-04-25T03:30:07;1.20;;;0.30;;
53389;SDS011;39288;42.970;1.524;2023-04-25T03:31:08;0.20;;;0.20;;
53389;SDS011;39288;42.970;1.524;2023-04-25T03:32:08;0.20;;;0.20;;
53389;SDS011;39288;42.970;1.524;2023-04-25T03:33:09;0.27;;;0.27;;
53389;SDS011;39288;42.970;1.524;2023-04-25T03:34:09;0.43;;;0.30;;
53389;SDS011;39288;42.970;1.524;2023-04-25T03:35:10;0.50;;;0.33;;
53389;SDS011;39288;42.970;1.524;2023-04-25T03:36:10;0.20;;;0.20;;
53389;SDS011;39288;42.970;1.524;2023-04-25T03:37:11;0.20;;;0.20;;
53389;SDS011;39288;42.970;1.524;2023-04-25T03:38:11;0.20;;;0.20;;
53389;SDS011;39288;42.970;1.524;2023-04-25T03:39:12;0.37;;;0.30;;
53389;SDS011;39288;42.970;1.524;2023-04-25T03:40:12;0.47;;;0.40;;
53389;SDS011;39288;42.970;1.524;2023-04-25T03:41:13;1.97;;;0.43;;
53389;SDS011;39288;42.970;1.524;2023-04-25T03:42:13;0.47;;;0.20;;
53389;SDS011;39288;42.970;1.524;2023-04-25T03:43:13;0.20;;;0.20;;
53389;SDS011;39288;42.970;1.524;2023-04-25T03:44:14;0.27;;;0.20;;
53389;SDS011;39288;42.970;1.524;2023-04-25T03:45:15;0.20;;;0.20;;
53389;SDS011;39288;42.970;1.524;2023-04-25T03:46:15;0.10;;;0.10;;
53389;SDS011;39288;42.970;1.524;2023-04-25T03:47:16;0.20;;;0.20;;
53389;SDS011;39288;42.970;1.524;2023-04-25T03:48:16;2.93;;;0.37;;
53389;SDS011;39288;42.970;1.524;2023-04-25T03:49:17;0.47;;;0.40;;
53389;SDS011;39288;42.970;1.524;2023-04-25T03:50:17;0.30;;;0.30;;
53389;SDS011;39288;42.970;1.524;2023-04-25T03:51:18;0.50;;;0.30;;
53389;SDS011;39288;42.970;1.524;2023-04-25T03:52:18;0.73;;;0.30;;
53389;SDS011;39288;42.970;1.524;2023-04-25T03:53:18;0.50;;;0.30;;
53389;SDS011;39288;42.970;1.524;2023-04-25T03:54:19;0.30;;;0.30;;
53389;SDS011;39288;42.970;1.524;2023-04-25T03:55:20;4.40;;;0.60;;
53389;SDS011;39288;42.970;1.524;2023-04-25T03:56:20;0.30;;;0.20;;
53389;SDS011;39288;42.970;1.524;2023-04-25T03:57:21;0.27;;;0.20;;
53389;SDS011;39288;42.970;1.524;2023-04-25T03:58:21;0.27;;;0.20;;
53389;SDS011;39288;42.970;1.524;2023-04-25T03:59:24;1.85;;;0.50;;
53389;SDS011;39288;42.970;1.524;2023-04-25T04:01:26;0.40;;;0.20;;
53389;SDS011;39288;42.970;1.524;2023-04-25T04:02:26;0.40;;;0.30;;
53389;SDS011;39288;42.970;1.524;2023-04-25T04:03:27;0.43;;;0.20;;
53389;SDS011;39288;42.970;1.524;2023-04-25T04:04:27;0.50;;;0.20;;
53389;SDS011;39288;42.970;1.524;2023-04-25T04:05:28;0.20;;;0.20;;
53389;SDS011;39288;42.970;1.524;2023-04-25T04:06:28;0.30;;;0.30;;
53389;SDS011;39288;42.970;1.524;2023-04-25T04:07:29;0.20;;;0.17;;
53389;SDS011;39288;42.970;1.524;2023-04-25T04:08:32;1.25;;;0.35;;
53389;SDS011;39288;42.970;1.524;2023-04-25T04:09:33;0.20;;;0.20;;
53389;SDS011;39288;42.970;1.524;2023-04-25T04:10:33;0.50;;;0.20;;
53389;SDS011;39288;42.970;1.524;2023-04-25T04:11:34;0.20;;;0.20;;
53389;SDS011;39288;42.970;1.524;2023-04-25T04:12:36;0.10;;;0.10;;
53389;SDS011;39288;42.970;1.524;2023-04-25T04:13:37;0.30;;;0.20;;
53389;SDS011;39288;42.970;1.524;2023-04-25T04:14:38;2.47;;;0.30;;
53389;SDS011;39288;42.970;1.524;2023-04-25T04:15:38;2.00;;;0.70;;
53389;SDS011;39288;42.970;1.524;2023-04-25T04:16:39;0.50;;;0.40;;
53389;SDS011;39288;42.970;1.524;2023-04-25T04:17:39;1.90;;;0.93;;
53389;SDS011;39288;42.970;1.524;2023-04-25T04:18:41;0.40;;;0.20;;
53389;SDS011;39288;42.970;1.524;2023-04-25T04:19:41;0.63;;;0.40;;
53389;SDS011;39288;42.970;1.524;2023-04-25T04:20:42;1.07;;;0.60;;
53389;SDS011;39288;42.970;1.524;2023-04-25T04:21:42;0.87;;;0.47;;
53389;SDS011;39288;42.970;1.524;2023-04-25T04:22:42;0.63;;;0.47;;
53389;SDS011;39288;42.970;1.524;2023-04-25T04:23:43;1.03;;;0.30;;
53389;SDS011;39288;42.970;1.524;2023-04-25T04:24:43;0.60;;;0.13;;
53389;SDS011;39288;42.970;1.524;2023-04-25T04:25:46;0.80;;;0.35;;
53389;SDS011;39288;42.970;1.524;2023-04-25T04:26:47;3.60;;;0.28;;
53389;SDS011;39288;42.970;1.524;2023-04-25T04:27:48;0.20;;;0.20;;
53389;SDS011;39288;42.970;1.524;2023-04-25T04:28:49;1.37;;;0.30;;
53389;SDS011;39288;42.970;1.524;2023-04-25T04:29:54;0.63;;;0.20;;
53389;SDS011;39288;42.970;1.524;2023-04-25T04:30:54;0.37;;;0.20;;
53389;SDS011;39288;42.970;1.524;2023-04-25T04:31:55;0.33;;;0.20;;
53389;SDS011;39288;42.970;1.524;2023-04-25T04:32:56;0.67;;;0.10;;
53389;SDS011;39288;42.970;1.524;2023-04-25T04:33:56;0.20;;;0.13;;
53389;SDS011;39288;42.970;1.524;2023-04-25T04:34:57;0.30;;;0.10;;
53389;SDS011;39288;42.970;1.524;2023-04-25T04:35:57;0.10;;;0.10;;
53389;SDS011;39288;42.970;1.524;2023-04-25T04:36:58;1.45;;;0.20;;
53389;SDS011;39288;42.970;1.524;2023-04-25T04:38:00;0.45;;;0.25;;
53389;SDS011;39288;42.970;1.524;2023-04-25T04:39:00;0.67;;;0.27;;
53389;SDS011;39288;42.970;1.524;2023-04-25T04:40:03;0.22;;;0.10;;
53389;SDS011;39288;42.970;1.524;2023-04-25T04:41:05;0.30;;;0.22;;
53389;SDS011;39288;42.970;1.524;2023-04-25T04:42:05;0.10;;;0.10;;
53389;SDS011;39288;42.970;1.524;2023-04-25T04:43:06;1.80;;;0.10;;
53389;SDS011;39288;42.970;1.524;2023-04-25T04:44:08;0.03;;;0.03;;
53389;SDS011;39288;42.970;1.524;2023-04-25T04:45:10;0.20;;;0.05;;
53389;SDS011;39288;42.970;1.524;2023-04-25T04:46:11;0.35;;;0.00;;
53389;SDS011;39288;42.970;1.524;2023-04-25T04:47:12;0.43;;;0.10;;
53389;SDS011;39288;42.970;1.524;2023-04-25T04:48:14;0.20;;;0.20;;
53389;SDS011;39288;42.970;1.524;2023-04-25T04:49:14;0.30;;;0.10;;
53389;SDS011;39288;42.970;1.524;2023-04-25T04:50:15;0.07;;;0.07;;
53389;SDS011;39288;42.970;1.524;2023-04-25T04:51:16;2.95;;;0.10;;
53389;SDS011;39288;42.970;1.524;2023-04-25T04:52:16;0.10;;;0.10;;
53389;SDS011;39288;42.970;1.524;2023-04-25T04:53:17;1.00;;;0.10;;
53389;SDS011;39288;42.970;1.524;2023-04-25T04:54:17;0.30;;;0.10;;
53389;SDS011;39288;42.970;1.524;2023-04-25T04:55:17;0.10;;;0.10;;
53389;SDS011;39288;42.970;1.524;2023-04-25T04:56:18;0.83;;;0.10;;
53389;SDS011;39288;42.970;1.524;2023-04-25T04:57:20;1.08;;;0.10;;
53389;SDS011;39288;42.970;1.524;2023-04-25T04:58:21;0.00;;;0.00;;
53389;SDS011;39288;42.970;1.524;2023-04-25T04:59:21;0.23;;;0.13;;
53389;SDS011;39288;42.970;1.524;2023-04-25T05:00:22;0.03;;;0.03;;
53389;SDS011;39288;42.970;1.524;2023-04-25T05:01:22;0.73;;;0.30;;
53389;SDS011;39288;42.970;1.524;2023-04-25T05:02:23;0.23;;;0.20;;
53389;SDS011;39288;42.970;1.524;2023-04-25T05:03:23;0.10;;;0.00;;
53389;SDS011;39288;42.970;1.524;2023-04-25T05:04:24;0.10;;;0.10;;
53389;SDS011;39288;42.970;1.524;2023-04-25T05:05:25;0.10;;;0.10;;
53389;SDS011;39288;42.970;1.524;2023-04-25T05:06:26;1.00;;;0.20;;
53389;SDS011;39288;42.970;1.524;2023-04-25T05:07:27;1.67;;;0.20;;
53389;SDS011;39288;42.970;1.524;2023-04-25T05:08:27;0.20;;;0.10;;
53389;SDS011;39288;42.970;1.524;2023-04-25T05:09:28;0.60;;;0.20;;
53389;SDS011;39288;42.970;1.524;2023-04-25T05:10:28;0.60;;;0.37;;
53389;SDS011;39288;42.970;1.524;2023-04-25T05:11:29;1.33;;;0.40;;
53389;SDS011;39288;42.970;1.524;2023-04-25T05:12:29;0.47;;;0.20;;
53389;SDS011;39288;42.970;1.524;2023-04-25T05:13:30;0.73;;;0.20;;
53389;SDS011;39288;42.970;1.524;2023-04-25T05:14:31;0.80;;;0.20;;
53389;SDS011;39288;42.970;1.524;2023-04-25T05:15:31;0.27;;;0.20;;
53389;SDS011;39288;42.970;1.524;2023-04-25T05:16:31;0.20;;;0.20;;
53389;SDS011;39288;42.970;1.524;2023-04-25T05:17:32;1.40;;;0.10;;
53389;SDS011;39288;42.970;1.524;2023-04-25T05:18:32;2.27;;;0.33;;
53389;SDS011;39288;42.970;1.524;2023-04-25T05:19:33;0.70;;;0.30;;
53389;SDS011;39288;42.970;1.524;2023-04-25T05:20:33;3.67;;;0.23;;
53389;SDS011;39288;42.970;1.524;2023-04-25T05:21:34;1.30;;;0.20;;
53389;SDS011;39288;42.970;1.524;2023-04-25T05:22:34;1.00;;;0.20;;
53389;SDS011;39288;42.970;1.524;2023-04-25T05:23:35;0.10;;;0.10;;
53389;SDS011;39288;42.970;1.524;2023-04-25T05:24:36;0.73;;;0.20;;
53389;SDS011;39288;42.970;1.524;2023-04-25T05:25:36;0.70;;;0.23;;
53389;SDS011;39288;42.970;1.524;2023-04-25T05:26:37;1.33;;;0.27;;
53389;SDS011;39288;42.970;1.524;2023-04-25T05:27:37;0.83;;;0.20;;
53389;SDS011;39288;42.970;1.524;2023-04-25T05:28:38;0.50;;;0.30;;
53389;SDS011;39288;42.970;1.524;2023-04-25T05:29:38;0.40;;;0.10;;
53389;SDS011;39288;42.970;1.524;2023-04-25T05:30:39;1.30;;;0.20;;
53389;SDS011;39288;42.970;1.524;2023-04-25T05:31:39;0.60;;;0.40;;
53389;SDS011;39288;42.970;1.524;2023-04-25T05:32:40;1.10;;;0.30;;
53389;SDS011;39288;42.970;1.524;2023-04-25T05:33:41;0.38;;;0.20;;
53389;SDS011;39288;42.970;1.524;2023-04-25T05:34:41;0.63;;;0.30;;
53389;SDS011;39288;42.970;1.524;2023-04-25T05:35:42;1.80;;;0.30;;
53389;SDS011;39288;42.970;1.524;2023-04-25T05:36:42;0.50;;;0.30;;
53389;SDS011;39288;42.970;1.524;2023-04-25T05:37:43;0.50;;;0.20;;
53389;SDS011;39288;42.970;1.524;2023-04-25T05:38:43;0.73;;;0.27;;
53389;SDS011;39288;42.970;1.524;2023-04-25T05:39:44;0.93;;;0.47;;
53389;SDS011;39288;42.970;1.524;2023-04-25T05:40:44;0.20;;;0.20;;
53389;SDS011;39288;42.970;1.524;2023-04-25T05:41:45;3.70;;;0.30;;
53389;SDS011;39288;42.970;1.524;2023-04-25T05:42:45;0.73;;;0.40;;
53389;SDS011;39288;42.970;1.524;2023-04-25T05:43:46;2.73;;;0.50;;
53389;SDS011;39288;42.970;1.524;2023-04-25T05:44:49;1.95;;;0.40;;
53389;SDS011;39288;42.970;1.524;2023-04-25T05:45:49;0.50;;;0.50;;
53389;SDS011;39288;42.970;1.524;2023-04-25T05:46:50;3.03;;;0.40;;
53389;SDS011;39288;42.970;1.524;2023-04-25T05:47:50;1.70;;;0.33;;
53389;SDS011;39288;42.970;1.524;2023-04-25T05:48:51;1.00;;;0.40;;
53389;SDS011;39288;42.970;1.524;2023-04-25T05:49:51;0.77;;;0.33;;
53389;SDS011;39288;42.970;1.524;2023-04-25T05:50:52;0.70;;;0.23;;
53389;SDS011;39288;42.970;1.524;2023-04-25T05:51:52;0.87;;;0.50;;
53389;SDS011;39288;42.970;1.524;2023-04-25T05:52:53;0.30;;;0.30;;
53389;SDS011;39288;42.970;1.524;2023-04-25T05:53:53;1.23;;;0.20;;
53389;SDS011;39288;42.970;1.524;2023-04-25T05:54:54;1.87;;;0.53;;
53389;SDS011;39288;42.970;1.524;2023-04-25T05:55:54;0.30;;;0.30;;
53389;SDS011;39288;42.970;1.524;2023-04-25T05:56:56;0.97;;;0.40;;
53389;SDS011;39288;42.970;1.524;2023-04-25T05:58:57;0.65;;;0.30;;
53389;SDS011;39288;42.970;1.524;2023-04-25T05:59:57;0.93;;;0.33;;
53389;SDS011;39288;42.970;1.524;2023-04-25T06:00:58;1.47;;;0.70;;
53389;SDS011;39288;42.970;1.524;2023-04-25T06:01:59;0.47;;;0.30;;
53389;SDS011;39288;42.970;1.524;2023-04-25T06:03:00;3.10;;;0.30;;
53389;SDS011;39288;42.970;1.524;2023-04-25T06:04:01;0.50;;;0.30;;
53389;SDS011;39288;42.970;1.524;2023-04-25T06:05:01;0.63;;;0.30;;
53389;SDS011;39288;42.970;1.524;2023-04-25T06:06:05;0.32;;;0.30;;
53389;SDS011;39288;42.970;1.524;2023-04-25T06:07:05;2.77;;;0.40;;
53389;SDS011;39288;42.970;1.524;2023-04-25T06:08:06;1.40;;;0.27;;
53389;SDS011;39288;42.970;1.524;2023-04-25T06:09:06;0.40;;;0.40;;
53389;SDS011;39288;42.970;1.524;2023-04-25T06:10:07;0.40;;;0.30;;
53389;SDS011;39288;42.970;1.524;2023-04-25T06:11:08;0.50;;;0.40;;